sensor_id;sensor_type;location;lat;lon;timestamp;P1;durP1;ratioP1;P2;durP2;ratioP2
24787;SDS011;12883;52.662;5.196;2022-07-01T00:00:21;3.13;;;3.13;;
24787;SDS011;12883;52.662;5.196;2022-07-01T00:02:46;2.67;;;2.67;;
24787;SDS011;12883;52.662;5.196;2022-07-01T00:05:11;2.77;;;2.77;;
24787;SDS011;12883;52.662;5.196;2022-07-01T00:07:38;3.30;;;3.30;;
24787;SDS011;12883;52.662;5.196;2022-07-01T00:10:04;2.90;;;2.90;;
24787;SDS011;12883;52.662;5.196;2022-07-01T00:12:30;2.70;;;2.70;;
24787;SDS011;12883;52.662;5.196;2022-07-01T00:14:55;2.57;;;2.57;;
24787;SDS011;12883;52.662;5.196;2022-07-01T00:17:20;2.70;;;2.70;;
24787;SDS011;12883;52.662;5.196;2022-07-01T00:19:46;2.73;;;2.73;;
24787;SDS011;12883;52.662;5.196;2022-07-01T00:22:13;2.47;;;2.47;;
24787;SDS011;12883;52.662;5.196;2022-07-01T00:24:38;2.53;;;2.53;;
24787;SDS011;12883;52.662;5.196;2022-07-01T00:27:04;3.30;;;3.30;;
24787;SDS011;12883;52.662;5.196;2022-07-01T00:29:29;2.93;;;2.93;;
24787;SDS011;12883;52.662;5.196;2022-07-01T00:31:55;2.60;;;2.60;;
24787;SDS011;12883;52.662;5.196;2022-07-01T00:34:20;2.83;;;2.83;;
24787;SDS011;12883;52.662;5.196;2022-07-01T00:36:46;2.20;;;2.20;;
24787;SDS011;12883;52.662;5.196;2022-07-01T00:39:11;2.40;;;2.40;;
24787;SDS011;12883;52.662;5.196;2022-07-01T00:41:36;2.03;;;2.03;;
24787;SDS011;12883;52.662;5.196;2022-07-01T00:44:02;2.03;;;2.03;;
24787;SDS011;12883;52.662;5.196;2022-07-01T00:46:28;2.90;;;2.90;;
24787;SDS011;12883;52.662;5.196;2022-07-01T00:48:54;2.30;;;2.30;;
24787;SDS011;12883;52.662;5.196;2022-07-01T00:51:23;2.00;;;2.00;;
24787;SDS011;12883;52.662;5.196;2022-07-01T00:53:48;2.03;;;2.03;;
24787;SDS011;12883;52.662;5.196;2022-07-01T00:56:14;2.20;;;2.20;;
24787;SDS011;12883;52.662;5.196;2022-07-01T00:58:39;2.43;;;2.43;;
24787;SDS011;12883;52.662;5.196;2022-07-01T01:01:05;2.20;;;2.20;;
24787;SDS011;12883;52.662;5.196;2022-07-01T01:03:30;2.50;;;2.50;;
24787;SDS011;12883;52.662;5.196;2022-07-01T01:05:55;2.33;;;2.33;;
24787;SDS011;12883;52.662;5.196;2022-07-01T01:08:22;2.63;;;2.63;;
24787;SDS011;12883;52.662;5.196;2022-07-01T01:10:48;2.63;;;2.63;;
24787;SDS011;12883;52.662;5.196;2022-07-01T01:13:13;2.63;;;2.63;;
24787;SDS011;12883;52.662;5.196;2022-07-01T01:15:39;3.43;;;3.43;;
24787;SDS011;12883;52.662;5.196;2022-07-01T01:18:05;2.87;;;2.87;;
24787;SDS011;12883;52.662;5.196;2022-07-01T01:20:32;2.70;;;2.70;;
24787;SDS011;12883;52.662;5.196;2022-07-01T01:23:01;2.40;;;2.40;;
24787;SDS011;12883;52.662;5.196;2022-07-01T01:25:27;3.60;;;3.60;;
24787;SDS011;12883;52.662;5.196;2022-07-01T01:27:52;2.40;;;2.40;;
24787;SDS011;12883;52.662;5.196;2022-07-01T01:30:18;2.40;;;2.40;;
24787;SDS011;12883;52.662;5.196;2022-07-01T01:32:43;2.60;;;2.60;;
24787;SDS011;12883;52.662;5.196;2022-07-01T01:35:09;3.00;;;3.00;;
24787;SDS011;12883;52.662;5.196;2022-07-01T01:37:35;3.77;;;3.77;;
24787;SDS011;12883;52.662;5.196;2022-07-01T01:40:00;5.40;;;5.40;;
24787;SDS011;12883;52.662;5.196;2022-07-01T01:42:26;7.30;;;7.30;;
24787;SDS011;12883;52.662;5.196;2022-07-01T01:44:52;10.57;;;10.57;;
24787;SDS011;12883;52.662;5.196;2022-07-01T01:47:17;11.03;;;11.03;;
24787;SDS011;12883;52.662;5.196;2022-07-01T01:49:42;12.83;;;12.83;;
24787;SDS011;12883;52.662;5.196;2022-07-01T01:52:08;15.37;;;15.37;;
24787;SDS011;12883;52.662;5.196;2022-07-01T01:54:33;17.07;;;16.97;;
24787;SDS011;12883;52.662;5.196;2022-07-01T01:57:01;16.90;;;16.80;;
24787;SDS011;12883;52.662;5.196;2022-07-01T01:59:28;19.23;;;19.13;;
24787;SDS011;12883;52.662;5.196;2022-07-01T02:01:53;18.80;;;18.70;;
24787;SDS011;12883;52.662;5.196;2022-07-01T02:04:18;19.60;;;19.50;;
24787;SDS011;12883;52.662;5.196;2022-07-01T02:06:44;20.00;;;19.90;;
24787;SDS011;12883;52.662;5.196;2022-07-01T02:09:09;20.90;;;20.80;;
24787;SDS011;12883;52.662;5.196;2022-07-01T02:11:35;19.00;;;18.90;;
24787;SDS011;12883;52.662;5.196;2022-07-01T02:14:00;19.30;;;19.20;;
24787;SDS011;12883;52.662;5.196;2022-07-01T02:16:26;19.03;;;18.93;;
24787;SDS011;12883;52.662;5.196;2022-07-01T02:18:51;19.73;;;19.63;;
24787;SDS011;12883;52.662;5.196;2022-07-01T02:21:17;19.80;;;19.70;;
24787;SDS011;12883;52.662;5.196;2022-07-01T02:23:42;20.03;;;19.93;;
24787;SDS011;12883;52.662;5.196;2022-07-01T02:26:07;20.50;;;20.40;;
24787;SDS011;12883;52.662;5.196;2022-07-01T02:28:33;20.57;;;20.47;;
24787;SDS011;12883;52.662;5.196;2022-07-01T02:30:58;21.37;;;21.27;;
24787;SDS011;12883;52.662;5.196;2022-07-01T02:33:24;23.13;;;23.03;;
24787;SDS011;12883;52.662;5.196;2022-07-01T02:35:49;24.27;;;24.17;;
24787;SDS011;12883;52.662;5.196;2022-07-01T02:38:15;24.90;;;24.80;;
24787;SDS011;12883;52.662;5.196;2022-07-01T02:40:41;27.50;;;27.40;;
24787;SDS011;12883;52.662;5.196;2022-07-01T02:43:07;26.43;;;26.33;;
24787;SDS011;12883;52.662;5.196;2022-07-01T02:45:32;26.50;;;26.40;;
24787;SDS011;12883;52.662;5.196;2022-07-01T02:47:58;25.83;;;25.73;;
24787;SDS011;12883;52.662;5.196;2022-07-01T02:50:23;25.90;;;25.80;;
24787;SDS011;12883;52.662;5.196;2022-07-01T02:52:49;26.67;;;26.57;;
24787;SDS011;12883;52.662;5.196;2022-07-01T02:55:14;27.97;;;27.87;;
24787;SDS011;12883;52.662;5.196;2022-07-01T02:57:40;28.70;;;28.60;;
24787;SDS011;12883;52.662;5.196;2022-07-01T03:00:07;32.10;;;32.00;;
24787;SDS011;12883;52.662;5.196;2022-07-01T03:02:34;31.50;;;31.40;;
24787;SDS011;12883;52.662;5.196;2022-07-01T03:05:00;31.93;;;31.77;;
24787;SDS011;12883;52.662;5.196;2022-07-01T03:07:26;32.73;;;32.63;;
24787;SDS011;12883;52.662;5.196;2022-07-01T03:09:52;32.43;;;32.33;;
24787;SDS011;12883;52.662;5.196;2022-07-01T03:12:17;34.23;;;34.13;;
24787;SDS011;12883;52.662;5.196;2022-07-01T03:14:56;33.97;;;33.77;;
24787;SDS011;12883;52.662;5.196;2022-07-01T03:17:23;32.87;;;32.73;;
24787;SDS011;12883;52.662;5.196;2022-07-01T03:19:49;31.57;;;31.37;;
24787;SDS011;12883;52.662;5.196;2022-07-01T03:22:16;33.63;;;33.43;;
24787;SDS011;12883;52.662;5.196;2022-07-01T03:24:42;31.67;;;31.57;;
24787;SDS011;12883;52.662;5.196;2022-07-01T03:27:07;31.67;;;31.57;;
24787;SDS011;12883;52.662;5.196;2022-07-01T03:29:33;30.77;;;30.67;;
24787;SDS011;12883;52.662;5.196;2022-07-01T03:31:59;29.70;;;29.60;;
24787;SDS011;12883;52.662;5.196;2022-07-01T03:34:24;30.83;;;30.63;;
24787;SDS011;12883;52.662;5.196;2022-07-01T03:36:49;28.67;;;28.57;;
24787;SDS011;12883;52.662;5.196;2022-07-01T03:39:15;27.20;;;27.10;;
24787;SDS011;12883;52.662;5.196;2022-07-01T03:41:40;29.37;;;29.27;;
24787;SDS011;12883;52.662;5.196;2022-07-01T03:44:05;26.40;;;26.30;;
24787;SDS011;12883;52.662;5.196;2022-07-01T03:46:33;27.80;;;27.70;;
24787;SDS011;12883;52.662;5.196;2022-07-01T03:49:00;26.53;;;26.43;;
24787;SDS011;12883;52.662;5.196;2022-07-01T03:51:26;26.07;;;25.97;;
24787;SDS011;12883;52.662;5.196;2022-07-01T03:53:52;24.43;;;24.33;;
24787;SDS011;12883;52.662;5.196;2022-07-01T03:56:36;23.87;;;23.77;;
24787;SDS011;12883;52.662;5.196;2022-07-01T03:59:01;24.27;;;24.17;;
24787;SDS011;12883;52.662;5.196;2022-07-01T04:01:26;22.90;;;22.80;;
24787;SDS011;12883;52.662;5.196;2022-07-01T04:03:52;24.00;;;23.90;;
24787;SDS011;12883;52.662;5.196;2022-07-01T04:06:17;23.63;;;23.53;;
24787;SDS011;12883;52.662;5.196;2022-07-01T04:08:43;22.57;;;22.47;;
24787;SDS011;12883;52.662;5.196;2022-07-01T04:11:09;20.97;;;20.87;;
24787;SDS011;12883;52.662;5.196;2022-07-01T04:13:35;20.37;;;20.27;;
24787;SDS011;12883;52.662;5.196;2022-07-01T04:16:04;19.47;;;19.37;;
24787;SDS011;12883;52.662;5.196;2022-07-01T04:18:29;18.57;;;18.47;;
24787;SDS011;12883;52.662;5.196;2022-07-01T04:20:55;18.57;;;18.47;;
24787;SDS011;12883;52.662;5.196;2022-07-01T04:23:40;18.27;;;18.17;;
24787;SDS011;12883;52.662;5.196;2022-07-01T04:26:05;18.53;;;18.43;;
24787;SDS011;12883;52.662;5.196;2022-07-01T04:28:31;16.83;;;16.73;;
24787;SDS011;12883;52.662;5.196;2022-07-01T04:30:56;18.67;;;18.57;;
24787;SDS011;12883;52.662;5.196;2022-07-01T04:33:21;17.97;;;17.87;;
24787;SDS011;12883;52.662;5.196;2022-07-01T04:35:47;17.93;;;17.83;;
24787;SDS011;12883;52.662;5.196;2022-07-01T04:38:12;18.43;;;18.33;;
24787;SDS011;12883;52.662;5.196;2022-07-01T04:40:37;18.37;;;18.27;;
24787;SDS011;12883;52.662;5.196;2022-07-01T04:43:03;17.93;;;17.83;;
24787;SDS011;12883;52.662;5.196;2022-07-01T04:45:28;17.80;;;17.70;;
24787;SDS011;12883;52.662;5.196;2022-07-01T04:47:53;17.37;;;17.27;;
24787;SDS011;12883;52.662;5.196;2022-07-01T04:50:19;17.03;;;16.93;;
24787;SDS011;12883;52.662;5.196;2022-07-01T04:52:44;17.30;;;17.20;;
24787;SDS011;12883;52.662;5.196;2022-07-01T04:55:09;15.93;;;15.83;;
24787;SDS011;12883;52.662;5.196;2022-07-01T04:57:35;15.30;;;15.20;;
24787;SDS011;12883;52.662;5.196;2022-07-01T05:00:00;13.63;;;13.53;;
24787;SDS011;12883;52.662;5.196;2022-07-01T05:02:25;14.80;;;14.70;;
24787;SDS011;12883;52.662;5.196;2022-07-01T05:04:51;14.53;;;14.50;;
24787;SDS011;12883;52.662;5.196;2022-07-01T05:07:16;13.50;;;13.40;;
24787;SDS011;12883;52.662;5.196;2022-07-01T05:09:54;13.43;;;13.43;;
24787;SDS011;12883;52.662;5.196;2022-07-01T05:12:20;13.70;;;13.70;;
24787;SDS011;12883;52.662;5.196;2022-07-01T05:14:46;12.77;;;12.77;;
24787;SDS011;12883;52.662;5.196;2022-07-01T05:17:11;13.87;;;13.77;;
24787;SDS011;12883;52.662;5.196;2022-07-01T05:19:37;14.47;;;14.43;;
24787;SDS011;12883;52.662;5.196;2022-07-01T05:22:20;13.83;;;13.83;;
24787;SDS011;12883;52.662;5.196;2022-07-01T05:24:46;12.90;;;12.90;;
24787;SDS011;12883;52.662;5.196;2022-07-01T05:27:11;13.87;;;13.87;;
24787;SDS011;12883;52.662;5.196;2022-07-01T05:29:37;14.70;;;14.70;;
24787;SDS011;12883;52.662;5.196;2022-07-01T05:32:02;13.37;;;13.37;;
24787;SDS011;12883;52.662;5.196;2022-07-01T05:34:28;13.20;;;13.20;;
24787;SDS011;12883;52.662;5.196;2022-07-01T05:36:53;12.57;;;12.53;;
24787;SDS011;12883;52.662;5.196;2022-07-01T05:39:18;12.13;;;12.13;;
24787;SDS011;12883;52.662;5.196;2022-07-01T05:41:44;12.00;;;12.00;;
24787;SDS011;12883;52.662;5.196;2022-07-01T05:44:10;12.20;;;12.10;;
24787;SDS011;12883;52.662;5.196;2022-07-01T05:46:36;11.23;;;11.23;;
24787;SDS011;12883;52.662;5.196;2022-07-01T05:49:01;12.40;;;12.40;;
24787;SDS011;12883;52.662;5.196;2022-07-01T05:51:27;12.27;;;12.17;;
24787;SDS011;12883;52.662;5.196;2022-07-01T05:53:52;11.27;;;11.20;;
24787;SDS011;12883;52.662;5.196;2022-07-01T05:56:17;10.50;;;10.50;;
24787;SDS011;12883;52.662;5.196;2022-07-01T05:58:43;10.10;;;10.10;;
24787;SDS011;12883;52.662;5.196;2022-07-01T06:01:09;9.30;;;9.30;;
24787;SDS011;12883;52.662;5.196;2022-07-01T06:03:34;8.97;;;8.97;;
24787;SDS011;12883;52.662;5.196;2022-07-01T06:05:59;9.67;;;9.67;;
24787;SDS011;12883;52.662;5.196;2022-07-01T06:08:25;9.20;;;9.20;;
24787;SDS011;12883;52.662;5.196;2022-07-01T06:10:50;9.63;;;9.63;;
24787;SDS011;12883;52.662;5.196;2022-07-01T06:13:15;8.73;;;8.73;;
24787;SDS011;12883;52.662;5.196;2022-07-01T06:15:41;7.57;;;7.57;;
24787;SDS011;12883;52.662;5.196;2022-07-01T06:18:06;7.73;;;7.73;;
24787;SDS011;12883;52.662;5.196;2022-07-01T06:20:32;6.97;;;6.97;;
24787;SDS011;12883;52.662;5.196;2022-07-01T06:22:57;7.00;;;7.00;;
24787;SDS011;12883;52.662;5.196;2022-07-01T06:25:23;5.95;;;5.95;;
24787;SDS011;12883;52.662;5.196;2022-07-01T06:27:48;6.67;;;6.67;;
24787;SDS011;12883;52.662;5.196;2022-07-01T06:30:13;7.53;;;7.53;;
24787;SDS011;12883;52.662;5.196;2022-07-01T06:32:39;6.95;;;6.95;;
24787;SDS011;12883;52.662;5.196;2022-07-01T06:35:05;5.75;;;5.75;;
24787;SDS011;12883;52.662;5.196;2022-07-01T06:37:32;4.18;;;4.18;;
24787;SDS011;12883;52.662;5.196;2022-07-01T06:39:59;4.18;;;4.18;;
24787;SDS011;12883;52.662;5.196;2022-07-01T06:42:25;3.58;;;3.58;;
24787;SDS011;12883;52.662;5.196;2022-07-01T06:44:50;3.40;;;3.40;;
24787;SDS011;12883;52.662;5.196;2022-07-01T06:47:16;3.83;;;3.83;;
24787;SDS011;12883;52.662;5.196;2022-07-01T06:49:41;3.47;;;3.47;;
24787;SDS011;12883;52.662;5.196;2022-07-01T06:52:07;3.75;;;3.75;;
24787;SDS011;12883;52.662;5.196;2022-07-01T06:54:32;4.05;;;4.05;;
24787;SDS011;12883;52.662;5.196;2022-07-01T06:57:00;3.92;;;3.92;;
24787;SDS011;12883;52.662;5.196;2022-07-01T06:59:26;3.92;;;3.92;;
24787;SDS011;12883;52.662;5.196;2022-07-01T07:01:51;3.92;;;3.92;;
24787;SDS011;12883;52.662;5.196;2022-07-01T07:04:18;4.38;;;4.38;;
24787;SDS011;12883;52.662;5.196;2022-07-01T07:06:43;4.70;;;4.70;;
24787;SDS011;12883;52.662;5.196;2022-07-01T07:09:08;4.15;;;4.15;;
24787;SDS011;12883;52.662;5.196;2022-07-01T07:11:34;4.57;;;4.57;;
24787;SDS011;12883;52.662;5.196;2022-07-01T07:13:59;3.90;;;3.90;;
24787;SDS011;12883;52.662;5.196;2022-07-01T07:16:24;4.32;;;4.32;;
24787;SDS011;12883;52.662;5.196;2022-07-01T07:18:51;4.57;;;4.57;;
24787;SDS011;12883;52.662;5.196;2022-07-01T07:21:16;4.63;;;4.63;;
24787;SDS011;12883;52.662;5.196;2022-07-01T07:23:42;4.72;;;4.72;;
24787;SDS011;12883;52.662;5.196;2022-07-01T07:26:08;5.22;;;5.22;;
24787;SDS011;12883;52.662;5.196;2022-07-01T07:28:34;4.35;;;4.35;;
24787;SDS011;12883;52.662;5.196;2022-07-01T07:30:59;5.05;;;5.05;;
24787;SDS011;12883;52.662;5.196;2022-07-01T07:33:25;4.32;;;4.32;;
24787;SDS011;12883;52.662;5.196;2022-07-01T07:35:50;4.70;;;4.70;;
24787;SDS011;12883;52.662;5.196;2022-07-01T07:38:15;5.20;;;5.20;;
24787;SDS011;12883;52.662;5.196;2022-07-01T07:40:41;4.38;;;4.38;;
24787;SDS011;12883;52.662;5.196;2022-07-01T07:43:06;4.32;;;4.32;;
24787;SDS011;12883;52.662;5.196;2022-07-01T07:45:33;4.70;;;4.70;;
24787;SDS011;12883;52.662;5.196;2022-07-01T07:47:58;4.68;;;4.68;;
24787;SDS011;12883;52.662;5.196;2022-07-01T07:50:24;3.75;;;3.75;;
24787;SDS011;12883;52.662;5.196;2022-07-01T07:52:50;4.13;;;4.13;;
24787;SDS011;12883;52.662;5.196;2022-07-01T07:55:15;3.88;;;3.88;;
24787;SDS011;12883;52.662;5.196;2022-07-01T07:57:41;3.70;;;3.70;;
24787;SDS011;12883;52.662;5.196;2022-07-01T08:00:07;3.55;;;3.55;;
24787;SDS011;12883;52.662;5.196;2022-07-01T08:02:36;3.67;;;3.67;;
24787;SDS011;12883;52.662;5.196;2022-07-01T08:05:01;3.38;;;3.38;;
24787;SDS011;12883;52.662;5.196;2022-07-01T08:07:27;4.03;;;4.03;;
24787;SDS011;12883;52.662;5.196;2022-07-01T08:09:53;3.20;;;3.20;;
24787;SDS011;12883;52.662;5.196;2022-07-01T08:12:18;3.13;;;3.13;;
24787;SDS011;12883;52.662;5.196;2022-07-01T08:14:44;2.95;;;2.95;;
24787;SDS011;12883;52.662;5.196;2022-07-01T08:17:09;4.45;;;4.45;;
24787;SDS011;12883;52.662;5.196;2022-07-01T08:19:35;3.45;;;3.45;;
24787;SDS011;12883;52.662;5.196;2022-07-01T08:22:00;3.53;;;3.53;;
24787;SDS011;12883;52.662;5.196;2022-07-01T08:24:26;2.83;;;2.83;;
24787;SDS011;12883;52.662;5.196;2022-07-01T08:26:51;3.28;;;3.28;;
24787;SDS011;12883;52.662;5.196;2022-07-01T08:29:16;2.70;;;2.70;;
24787;SDS011;12883;52.662;5.196;2022-07-01T08:31:42;2.42;;;2.42;;
24787;SDS011;12883;52.662;5.196;2022-07-01T08:34:07;2.05;;;2.05;;
24787;SDS011;12883;52.662;5.196;2022-07-01T08:36:34;2.33;;;2.33;;
24787;SDS011;12883;52.662;5.196;2022-07-01T08:39:00;2.47;;;2.47;;
24787;SDS011;12883;52.662;5.196;2022-07-01T08:41:26;2.20;;;2.20;;
24787;SDS011;12883;52.662;5.196;2022-07-01T08:43:52;2.53;;;2.53;;
24787;SDS011;12883;52.662;5.196;2022-07-01T08:46:17;2.47;;;2.47;;
24787;SDS011;12883;52.662;5.196;2022-07-01T08:48:43;2.17;;;2.17;;
24787;SDS011;12883;52.662;5.196;2022-07-01T08:51:09;2.17;;;2.17;;
24787;SDS011;12883;52.662;5.196;2022-07-01T08:53:35;2.63;;;2.63;;
24787;SDS011;12883;52.662;5.196;2022-07-01T08:56:01;3.33;;;3.33;;
24787;SDS011;12883;52.662;5.196;2022-07-01T08:58:47;2.33;;;2.33;;
24787;SDS011;12883;52.662;5.196;2022-07-01T09:01:17;2.53;;;2.53;;
24787;SDS011;12883;52.662;5.196;2022-07-01T09:03:51;1.85;;;1.85;;
24787;SDS011;12883;52.662;5.196;2022-07-01T09:06:20;2.50;;;2.50;;
24787;SDS011;12883;52.662;5.196;2022-07-01T09:08:50;1.65;;;1.65;;
24787;SDS011;12883;52.662;5.196;2022-07-01T09:11:17;2.40;;;2.40;;
24787;SDS011;12883;52.662;5.196;2022-07-01T09:13:45;2.10;;;2.10;;
24787;SDS011;12883;52.662;5.196;2022-07-01T09:16:29;1.60;;;1.60;;
24787;SDS011;12883;52.662;5.196;2022-07-01T09:19:03;1.95;;;1.95;;
24787;SDS011;12883;52.662;5.196;2022-07-01T09:21:29;1.85;;;1.85;;
24787;SDS011;12883;52.662;5.196;2022-07-01T09:24:02;2.30;;;2.30;;
24787;SDS011;12883;52.662;5.196;2022-07-01T09:26:29;2.58;;;2.58;;
24787;SDS011;12883;52.662;5.196;2022-07-01T09:28:55;2.00;;;2.00;;
24787;SDS011;12883;52.662;5.196;2022-07-01T09:31:22;2.42;;;2.42;;
24787;SDS011;12883;52.662;5.196;2022-07-01T09:34:06;2.28;;;2.28;;
24787;SDS011;12883;52.662;5.196;2022-07-01T09:36:37;2.60;;;2.60;;
24787;SDS011;12883;52.662;5.196;2022-07-01T09:39:04;2.70;;;2.70;;
24787;SDS011;12883;52.662;5.196;2022-07-01T09:41:34;2.40;;;2.40;;
24787;SDS011;12883;52.662;5.196;2022-07-01T09:44:04;3.22;;;3.22;;
24787;SDS011;12883;52.662;5.196;2022-07-01T09:46:31;3.30;;;3.30;;
24787;SDS011;12883;52.662;5.196;2022-07-01T09:48:56;3.50;;;3.50;;
24787;SDS011;12883;52.662;5.196;2022-07-01T09:51:22;2.72;;;2.72;;
24787;SDS011;12883;52.662;5.196;2022-07-01T09:53:47;2.85;;;2.85;;
24787;SDS011;12883;52.662;5.196;2022-07-01T09:56:12;2.03;;;2.03;;
24787;SDS011;12883;52.662;5.196;2022-07-01T09:58:38;2.30;;;2.30;;
24787;SDS011;12883;52.662;5.196;2022-07-01T10:01:04;3.55;;;3.55;;
24787;SDS011;12883;52.662;5.196;2022-07-01T10:03:30;2.90;;;2.90;;
24787;SDS011;12883;52.662;5.196;2022-07-01T10:05:58;3.72;;;3.72;;
24787;SDS011;12883;52.662;5.196;2022-07-01T10:08:46;2.60;;;2.60;;
24787;SDS011;12883;52.662;5.196;2022-07-01T10:14:06;3.55;;;3.55;;
24787;SDS011;12883;52.662;5.196;2022-07-01T10:16:32;3.08;;;3.08;;
24787;SDS011;12883;52.662;5.196;2022-07-01T10:19:05;2.97;;;2.97;;
24787;SDS011;12883;52.662;5.196;2022-07-01T10:21:52;5.63;;;5.63;;
24787;SDS011;12883;52.662;5.196;2022-07-01T10:24:22;5.07;;;5.07;;
24787;SDS011;12883;52.662;5.196;2022-07-01T10:26:48;3.30;;;3.30;;
24787;SDS011;12883;52.662;5.196;2022-07-01T10:29:33;4.72;;;4.72;;
24787;SDS011;12883;52.662;5.196;2022-07-01T10:32:01;4.60;;;4.60;;
24787;SDS011;12883;52.662;5.196;2022-07-01T10:34:34;3.65;;;3.65;;
24787;SDS011;12883;52.662;5.196;2022-07-01T10:37:01;5.35;;;5.35;;
24787;SDS011;12883;52.662;5.196;2022-07-01T10:39:29;4.70;;;4.70;;
24787;SDS011;12883;52.662;5.196;2022-07-01T10:41:58;3.33;;;3.33;;
24787;SDS011;12883;52.662;5.196;2022-07-01T10:44:26;3.08;;;3.08;;
24787;SDS011;12883;52.662;5.196;2022-07-01T10:46:58;2.97;;;2.97;;
24787;SDS011;12883;52.662;5.196;2022-07-01T10:51:59;5.25;;;5.25;;
24787;SDS011;12883;52.662;5.196;2022-07-01T10:59:44;2.45;;;2.45;;
24787;SDS011;12883;52.662;5.196;2022-07-01T11:04:57;1.65;;;1.65;;
24787;SDS011;12883;52.662;5.196;2022-07-01T11:07:32;2.38;;;2.38;;
24787;SDS011;12883;52.662;5.196;2022-07-01T11:09:59;2.63;;;2.63;;
24787;SDS011;12883;52.662;5.196;2022-07-01T11:12:27;2.15;;;2.15;;
24787;SDS011;12883;52.662;5.196;2022-07-01T11:14:54;2.38;;;2.38;;
24787;SDS011;12883;52.662;5.196;2022-07-01T11:17:21;2.63;;;2.63;;
24787;SDS011;12883;52.662;5.196;2022-07-01T11:19:47;3.00;;;3.00;;
24787;SDS011;12883;52.662;5.196;2022-07-01T11:22:17;2.65;;;2.65;;
24787;SDS011;12883;52.662;5.196;2022-07-01T11:24:51;2.30;;;2.30;;
24787;SDS011;12883;52.662;5.196;2022-07-01T11:27:17;2.92;;;2.92;;
24787;SDS011;12883;52.662;5.196;2022-07-01T11:29:43;2.20;;;2.20;;
24787;SDS011;12883;52.662;5.196;2022-07-01T11:32:08;2.15;;;2.15;;
24787;SDS011;12883;52.662;5.196;2022-07-01T11:34:35;2.55;;;2.55;;
24787;SDS011;12883;52.662;5.196;2022-07-01T11:37:01;2.35;;;2.35;;
24787;SDS011;12883;52.662;5.196;2022-07-01T11:40:02;2.40;;;2.40;;
24787;SDS011;12883;52.662;5.196;2022-07-01T11:42:38;1.88;;;1.88;;
24787;SDS011;12883;52.662;5.196;2022-07-01T11:45:04;2.63;;;2.63;;
24787;SDS011;12883;52.662;5.196;2022-07-01T11:47:31;3.20;;;3.20;;
24787;SDS011;12883;52.662;5.196;2022-07-01T11:49:57;2.95;;;2.95;;
24787;SDS011;12883;52.662;5.196;2022-07-01T11:52:24;2.28;;;2.28;;
24787;SDS011;12883;52.662;5.196;2022-07-01T11:54:59;2.67;;;2.67;;
24787;SDS011;12883;52.662;5.196;2022-07-01T11:57:25;3.03;;;3.03;;
24787;SDS011;12883;52.662;5.196;2022-07-01T11:59:55;4.47;;;4.47;;
24787;SDS011;12883;52.662;5.196;2022-07-01T12:02:22;4.85;;;4.85;;
24787;SDS011;12883;52.662;5.196;2022-07-01T12:04:48;6.07;;;6.07;;
24787;SDS011;12883;52.662;5.196;2022-07-01T12:07:16;3.28;;;3.28;;
24787;SDS011;12883;52.662;5.196;2022-07-01T12:09:44;4.00;;;4.00;;
24787;SDS011;12883;52.662;5.196;2022-07-01T12:12:17;5.93;;;5.93;;
24787;SDS011;12883;52.662;5.196;2022-07-01T12:14:51;3.10;;;3.10;;
24787;SDS011;12883;52.662;5.196;2022-07-01T12:17:17;3.35;;;3.35;;
24787;SDS011;12883;52.662;5.196;2022-07-01T12:19:43;3.60;;;3.60;;
24787;SDS011;12883;52.662;5.196;2022-07-01T12:22:13;4.47;;;4.47;;
24787;SDS011;12883;52.662;5.196;2022-07-01T12:24:40;5.03;;;5.03;;
24787;SDS011;12883;52.662;5.196;2022-07-01T12:27:07;4.53;;;4.53;;
24787;SDS011;12883;52.662;5.196;2022-07-01T12:32:04;3.03;;;3.03;;
24787;SDS011;12883;52.662;5.196;2022-07-01T12:37:48;3.40;;;3.40;;
24787;SDS011;12883;52.662;5.196;2022-07-01T12:39:59;2.97;;;2.97;;
24787;SDS011;12883;52.662;5.196;2022-07-01T12:42:45;2.85;;;2.85;;
24787;SDS011;12883;52.662;5.196;2022-07-01T12:45:11;3.03;;;3.03;;
24787;SDS011;12883;52.662;5.196;2022-07-01T12:47:43;2.72;;;2.72;;
24787;SDS011;12883;52.662;5.196;2022-07-01T12:50:14;3.63;;;3.63;;
24787;SDS011;12883;52.662;5.196;2022-07-01T12:55:32;4.15;;;4.15;;
24787;SDS011;12883;52.662;5.196;2022-07-01T12:58:02;2.88;;;2.88;;
24787;SDS011;12883;52.662;5.196;2022-07-01T13:00:29;3.70;;;3.70;;
24787;SDS011;12883;52.662;5.196;2022-07-01T13:02:56;2.58;;;2.58;;
24787;SDS011;12883;52.662;5.196;2022-07-01T13:05:23;3.78;;;3.78;;
24787;SDS011;12883;52.662;5.196;2022-07-01T13:07:49;3.13;;;3.13;;
24787;SDS011;12883;52.662;5.196;2022-07-01T13:10:16;3.53;;;3.53;;
24787;SDS011;12883;52.662;5.196;2022-07-01T13:12:42;3.97;;;3.97;;
24787;SDS011;12883;52.662;5.196;2022-07-01T13:15:15;3.45;;;3.45;;
24787;SDS011;12883;52.662;5.196;2022-07-01T13:17:42;3.22;;;3.22;;
24787;SDS011;12883;52.662;5.196;2022-07-01T13:20:08;3.92;;;3.92;;
24787;SDS011;12883;52.662;5.196;2022-07-01T13:22:34;3.35;;;3.35;;
24787;SDS011;12883;52.662;5.196;2022-07-01T13:25:00;2.67;;;2.67;;
24787;SDS011;12883;52.662;5.196;2022-07-01T13:27:26;2.70;;;2.70;;
24787;SDS011;12883;52.662;5.196;2022-07-01T13:29:51;2.65;;;2.65;;
24787;SDS011;12883;52.662;5.196;2022-07-01T13:32:17;3.00;;;3.00;;
24787;SDS011;12883;52.662;5.196;2022-07-01T13:34:42;3.10;;;3.10;;
24787;SDS011;12883;52.662;5.196;2022-07-01T13:37:08;3.58;;;3.58;;
24787;SDS011;12883;52.662;5.196;2022-07-01T13:39:33;2.92;;;2.92;;
24787;SDS011;12883;52.662;5.196;2022-07-01T13:41:59;2.80;;;2.80;;
24787;SDS011;12883;52.662;5.196;2022-07-01T13:44:24;2.67;;;2.67;;
24787;SDS011;12883;52.662;5.196;2022-07-01T13:46:50;3.63;;;3.63;;
24787;SDS011;12883;52.662;5.196;2022-07-01T13:49:15;2.70;;;2.70;;
24787;SDS011;12883;52.662;5.196;2022-07-01T13:51:41;2.72;;;2.72;;
24787;SDS011;12883;52.662;5.196;2022-07-01T13:54:06;2.40;;;2.40;;
24787;SDS011;12883;52.662;5.196;2022-07-01T13:56:32;2.85;;;2.85;;
24787;SDS011;12883;52.662;5.196;2022-07-01T13:58:57;2.85;;;2.85;;
24787;SDS011;12883;52.662;5.196;2022-07-01T14:01:22;3.13;;;3.13;;
24787;SDS011;12883;52.662;5.196;2022-07-01T14:03:48;2.85;;;2.85;;
24787;SDS011;12883;52.662;5.196;2022-07-01T14:06:14;2.97;;;2.97;;
24787;SDS011;12883;52.662;5.196;2022-07-01T14:08:40;2.53;;;2.53;;
24787;SDS011;12883;52.662;5.196;2022-07-01T14:11:05;1.98;;;1.98;;
24787;SDS011;12883;52.662;5.196;2022-07-01T14:13:31;2.47;;;2.47;;
24787;SDS011;12883;52.662;5.196;2022-07-01T14:15:59;2.72;;;2.72;;
24787;SDS011;12883;52.662;5.196;2022-07-01T14:18:25;2.63;;;2.63;;
24787;SDS011;12883;52.662;5.196;2022-07-01T14:20:50;2.33;;;2.33;;
24787;SDS011;12883;52.662;5.196;2022-07-01T14:23:15;2.13;;;2.13;;
24787;SDS011;12883;52.662;5.196;2022-07-01T14:25:41;2.53;;;2.53;;
24787;SDS011;12883;52.662;5.196;2022-07-01T14:28:08;3.55;;;3.55;;
24787;SDS011;12883;52.662;5.196;2022-07-01T14:30:34;3.03;;;3.03;;
24787;SDS011;12883;52.662;5.196;2022-07-01T14:32:59;2.78;;;2.78;;
24787;SDS011;12883;52.662;5.196;2022-07-01T14:35:26;2.33;;;2.33;;
24787;SDS011;12883;52.662;5.196;2022-07-01T14:37:52;2.97;;;2.97;;
24787;SDS011;12883;52.662;5.196;2022-07-01T14:40:17;2.72;;;2.72;;
24787;SDS011;12883;52.662;5.196;2022-07-01T14:42:43;2.25;;;2.25;;
24787;SDS011;12883;52.662;5.196;2022-07-01T14:45:10;2.58;;;2.58;;
24787;SDS011;12883;52.662;5.196;2022-07-01T14:47:38;2.25;;;2.25;;
24787;SDS011;12883;52.662;5.196;2022-07-01T14:50:04;2.35;;;2.35;;
24787;SDS011;12883;52.662;5.196;2022-07-01T14:52:30;2.28;;;2.28;;
24787;SDS011;12883;52.662;5.196;2022-07-01T14:54:55;2.53;;;2.53;;
24787;SDS011;12883;52.662;5.196;2022-07-01T14:57:20;3.50;;;3.50;;
24787;SDS011;12883;52.662;5.196;2022-07-01T14:59:46;2.00;;;2.00;;